sensor_id;sensor_type;location;lat;lon;timestamp;P1;durP1;ratioP1;P2;durP2;ratioP2
20802;SDS011;10562;-33.856;151.182;2022-07-29T00:01:56;5.13;;;1.08;;
20802;SDS011;10562;-33.856;151.182;2022-07-29T00:04:27;5.45;;;0.98;;
20802;SDS011;10562;-33.856;151.182;2022-07-29T00:06:57;6.15;;;1.10;;
20802;SDS011;10562;-33.856;151.182;2022-07-29T00:09:30;4.82;;;0.93;;
20802;SDS011;10562;-33.856;151.182;2022-07-29T00:12:01;4.30;;;1.10;;
20802;SDS011;10562;-33.856;151.182;2022-07-29T00:14:32;4.53;;;1.13;;
20802;SDS011;10562;-33.856;151.182;2022-07-29T00:17:03;2.75;;;0.98;;
20802;SDS011;10562;-33.856;151.182;2022-07-29T00:19:33;3.70;;;1.10;;
20802;SDS011;10562;-33.856;151.182;2022-07-29T00:22:04;3.42;;;1.00;;
20802;SDS011;10562;-33.856;151.182;2022-07-29T00:24:37;1.60;;;0.90;;
20802;SDS011;10562;-33.856;151.182;2022-07-29T00:27:08;3.28;;;1.20;;
20802;SDS011;10562;-33.856;151.182;2022-07-29T00:29:38;2.17;;;0.80;;
20802;SDS011;10562;-33.856;151.182;2022-07-29T00:32:09;3.35;;;0.98;;
20802;SDS011;10562;-33.856;151.182;2022-07-29T00:34:40;3.88;;;0.90;;
20802;SDS011;10562;-33.856;151.182;2022-07-29T00:37:27;5.10;;;1.02;;
20802;SDS011;10562;-33.856;151.182;2022-07-29T00:39:59;4.03;;;1.10;;
20802;SDS011;10562;-33.856;151.182;2022-07-29T00:42:30;2.80;;;1.15;;
20802;SDS011;10562;-33.856;151.182;2022-07-29T00:45:10;5.05;;;1.00;;
20802;SDS011;10562;-33.856;151.182;2022-07-29T00:47:41;3.72;;;0.90;;
20802;SDS011;10562;-33.856;151.182;2022-07-29T00:50:13;3.38;;;0.90;;
20802;SDS011;10562;-33.856;151.182;2022-07-29T00:52:44;2.30;;;0.93;;
20802;SDS011;10562;-33.856;151.182;2022-07-29T00:55:17;3.00;;;1.08;;
20802;SDS011;10562;-33.856;151.182;2022-07-29T00:57:48;2.53;;;0.95;;
20802;SDS011;10562;-33.856;151.182;2022-07-29T01:00:19;3.72;;;1.08;;
20802;SDS011;10562;-33.856;151.182;2022-07-29T01:02:52;3.58;;;1.00;;
20802;SDS011;10562;-33.856;151.182;2022-07-29T01:05:23;4.90;;;1.40;;
20802;SDS011;10562;-33.856;151.182;2022-07-29T01:07:55;3.72;;;0.90;;
20802;SDS011;10562;-33.856;151.182;2022-07-29T01:10:30;2.15;;;0.98;;
20802;SDS011;10562;-33.856;151.182;2022-07-29T01:13:01;3.42;;;1.10;;
20802;SDS011;10562;-33.856;151.182;2022-07-29T01:15:33;3.95;;;1.40;;
20802;SDS011;10562;-33.856;151.182;2022-07-29T01:18:11;3.25;;;1.05;;
20802;SDS011;10562;-33.856;151.182;2022-07-29T01:20:51;2.83;;;1.00;;
20802;SDS011;10562;-33.856;151.182;2022-07-29T01:23:40;3.03;;;1.08;;
20802;SDS011;10562;-33.856;151.182;2022-07-29T01:26:27;3.38;;;1.02;;
20802;SDS011;10562;-33.856;151.182;2022-07-29T01:29:09;7.90;;;1.10;;
20802;SDS011;10562;-33.856;151.182;2022-07-29T01:31:48;4.15;;;0.90;;
20802;SDS011;10562;-33.856;151.182;2022-07-29T01:34:24;3.08;;;1.00;;
20802;SDS011;10562;-33.856;151.182;2022-07-29T01:37:06;3.67;;;1.20;;
20802;SDS011;10562;-33.856;151.182;2022-07-29T01:39:44;2.80;;;1.10;;
20802;SDS011;10562;-33.856;151.182;2022-07-29T01:42:19;2.35;;;1.10;;
20802;SDS011;10562;-33.856;151.182;2022-07-29T01:44:57;2.38;;;1.10;;
20802;SDS011;10562;-33.856;151.182;2022-07-29T01:47:42;4.43;;;1.30;;
20802;SDS011;10562;-33.856;151.182;2022-07-29T01:50:16;5.63;;;1.30;;
20802;SDS011;10562;-33.856;151.182;2022-07-29T01:52:54;3.63;;;1.00;;
20802;SDS011;10562;-33.856;151.182;2022-07-29T01:55:29;7.85;;;1.30;;
20802;SDS011;10562;-33.856;151.182;2022-07-29T01:58:04;4.25;;;1.10;;
20802;SDS011;10562;-33.856;151.182;2022-07-29T02:00:37;3.15;;;1.10;;
20802;SDS011;10562;-33.856;151.182;2022-07-29T02:03:09;2.35;;;1.08;;
20802;SDS011;10562;-33.856;151.182;2022-07-29T02:05:42;1.83;;;0.88;;
20802;SDS011;10562;-33.856;151.182;2022-07-29T02:08:13;2.20;;;1.10;;
20802;SDS011;10562;-33.856;151.182;2022-07-29T02:10:47;5.60;;;1.15;;
20802;SDS011;10562;-33.856;151.182;2022-07-29T02:13:20;2.78;;;1.00;;
20802;SDS011;10562;-33.856;151.182;2022-07-29T02:15:54;1.77;;;1.00;;
20802;SDS011;10562;-33.856;151.182;2022-07-29T02:18:27;4.00;;;1.17;;
20802;SDS011;10562;-33.856;151.182;2022-07-29T02:20:59;1.83;;;0.90;;
20802;SDS011;10562;-33.856;151.182;2022-07-29T02:23:32;2.58;;;1.00;;
20802;SDS011;10562;-33.856;151.182;2022-07-29T02:26:03;4.82;;;1.45;;
20802;SDS011;10562;-33.856;151.182;2022-07-29T02:28:36;5.18;;;1.08;;
20802;SDS011;10562;-33.856;151.182;2022-07-29T02:31:10;3.00;;;1.13;;
20802;SDS011;10562;-33.856;151.182;2022-07-29T02:33:44;3.25;;;0.90;;
20802;SDS011;10562;-33.856;151.182;2022-07-29T02:36:17;3.95;;;1.23;;
20802;SDS011;10562;-33.856;151.182;2022-07-29T02:38:49;4.85;;;1.15;;
20802;SDS011;10562;-33.856;151.182;2022-07-29T02:41:23;5.28;;;1.20;;
20802;SDS011;10562;-33.856;151.182;2022-07-29T02:44:01;4.13;;;1.25;;
20802;SDS011;10562;-33.856;151.182;2022-07-29T02:46:41;3.03;;;1.15;;
20802;SDS011;10562;-33.856;151.182;2022-07-29T02:49:16;4.20;;;1.10;;
20802;SDS011;10562;-33.856;151.182;2022-07-29T02:51:58;3.40;;;0.80;;
20802;SDS011;10562;-33.856;151.182;2022-07-29T02:54:31;2.30;;;1.00;;
20802;SDS011;10562;-33.856;151.182;2022-07-29T02:57:09;3.53;;;1.00;;
20802;SDS011;10562;-33.856;151.182;2022-07-29T02:59:44;5.07;;;1.08;;
20802;SDS011;10562;-33.856;151.182;2022-07-29T03:02:18;4.93;;;1.08;;
20802;SDS011;10562;-33.856;151.182;2022-07-29T03:04:51;2.83;;;0.88;;
20802;SDS011;10562;-33.856;151.182;2022-07-29T03:07:24;5.25;;;1.45;;
20802;SDS011;10562;-33.856;151.182;2022-07-29T03:09:55;4.55;;;1.40;;
20802;SDS011;10562;-33.856;151.182;2022-07-29T03:12:27;4.65;;;1.27;;
20802;SDS011;10562;-33.856;151.182;2022-07-29T03:14:59;5.00;;;1.30;;
20802;SDS011;10562;-33.856;151.182;2022-07-29T03:17:33;2.92;;;1.27;;
20802;SDS011;10562;-33.856;151.182;2022-07-29T03:20:04;5.55;;;1.30;;
20802;SDS011;10562;-33.856;151.182;2022-07-29T03:22:38;2.85;;;1.15;;
20802;SDS011;10562;-33.856;151.182;2022-07-29T03:25:13;2.05;;;1.00;;
20802;SDS011;10562;-33.856;151.182;2022-07-29T03:27:45;5.38;;;1.23;;
20802;SDS011;10562;-33.856;151.182;2022-07-29T03:30:16;4.32;;;1.30;;
20802;SDS011;10562;-33.856;151.182;2022-07-29T03:32:49;2.33;;;1.00;;
20802;SDS011;10562;-33.856;151.182;2022-07-29T03:35:21;1.60;;;0.88;;
20802;SDS011;10562;-33.856;151.182;2022-07-29T03:37:52;4.03;;;1.10;;
20802;SDS011;10562;-33.856;151.182;2022-07-29T03:40:24;2.45;;;0.82;;
20802;SDS011;10562;-33.856;151.182;2022-07-29T03:43:00;3.47;;;1.00;;
20802;SDS011;10562;-33.856;151.182;2022-07-29T03:45:32;1.67;;;0.93;;
20802;SDS011;10562;-33.856;151.182;2022-07-29T03:48:07;1.77;;;0.80;;
20802;SDS011;10562;-33.856;151.182;2022-07-29T03:50:41;2.38;;;0.80;;
20802;SDS011;10562;-33.856;151.182;2022-07-29T03:53:13;5.65;;;1.33;;
20802;SDS011;10562;-33.856;151.182;2022-07-29T03:55:45;4.40;;;0.90;;
20802;SDS011;10562;-33.856;151.182;2022-07-29T03:58:19;4.75;;;0.98;;
20802;SDS011;10562;-33.856;151.182;2022-07-29T04:00:51;4.57;;;1.02;;
20802;SDS011;10562;-33.856;151.182;2022-07-29T04:03:25;1.67;;;0.85;;
20802;SDS011;10562;-33.856;151.182;2022-07-29T04:05:59;5.10;;;0.98;;
20802;SDS011;10562;-33.856;151.182;2022-07-29T04:08:31;3.47;;;0.98;;
20802;SDS011;10562;-33.856;151.182;2022-07-29T04:11:03;3.28;;;0.82;;
20802;SDS011;10562;-33.856;151.182;2022-07-29T04:13:34;5.95;;;0.80;;
20802;SDS011;10562;-33.856;151.182;2022-07-29T04:16:05;3.95;;;1.10;;
20802;SDS011;10562;-33.856;151.182;2022-07-29T04:18:37;4.82;;;1.00;;
20802;SDS011;10562;-33.856;151.182;2022-07-29T04:21:08;6.82;;;0.90;;
20802;SDS011;10562;-33.856;151.182;2022-07-29T04:23:39;5.78;;;1.30;;
20802;SDS011;10562;-33.856;151.182;2022-07-29T04:26:11;3.50;;;0.77;;
20802;SDS011;10562;-33.856;151.182;2022-07-29T04:28:41;4.78;;;0.98;;
20802;SDS011;10562;-33.856;151.182;2022-07-29T04:31:12;4.55;;;1.08;;
20802;SDS011;10562;-33.856;151.182;2022-07-29T04:33:45;4.20;;;1.10;;
20802;SDS011;10562;-33.856;151.182;2022-07-29T04:36:16;5.20;;;1.20;;
20802;SDS011;10562;-33.856;151.182;2022-07-29T04:38:47;4.10;;;1.00;;
20802;SDS011;10562;-33.856;151.182;2022-07-29T04:41:17;3.60;;;1.08;;
20802;SDS011;10562;-33.856;151.182;2022-07-29T04:43:48;5.45;;;1.48;;
20802;SDS011;10562;-33.856;151.182;2022-07-29T04:46:19;4.50;;;0.90;;
20802;SDS011;10562;-33.856;151.182;2022-07-29T04:48:52;3.83;;;1.10;;
20802;SDS011;10562;-33.856;151.182;2022-07-29T04:51:22;4.25;;;0.90;;
20802;SDS011;10562;-33.856;151.182;2022-07-29T04:53:53;3.35;;;1.20;;
20802;SDS011;10562;-33.856;151.182;2022-07-29T04:56:24;5.30;;;1.13;;
20802;SDS011;10562;-33.856;151.182;2022-07-29T04:58:55;4.35;;;1.00;;
20802;SDS011;10562;-33.856;151.182;2022-07-29T05:01:26;3.70;;;1.00;;
20802;SDS011;10562;-33.856;151.182;2022-07-29T05:03:58;2.85;;;0.93;;
20802;SDS011;10562;-33.856;151.182;2022-07-29T05:06:29;1.90;;;0.98;;
20802;SDS011;10562;-33.856;151.182;2022-07-29T05:09:00;7.43;;;0.80;;
20802;SDS011;10562;-33.856;151.182;2022-07-29T05:11:33;2.75;;;0.85;;
20802;SDS011;10562;-33.856;151.182;2022-07-29T05:14:03;3.58;;;1.10;;
20802;SDS011;10562;-33.856;151.182;2022-07-29T05:16:34;3.15;;;0.98;;
20802;SDS011;10562;-33.856;151.182;2022-07-29T05:19:08;3.58;;;0.80;;
20802;SDS011;10562;-33.856;151.182;2022-07-29T05:21:38;3.85;;;0.98;;
20802;SDS011;10562;-33.856;151.182;2022-07-29T05:24:09;2.33;;;0.80;;
20802;SDS011;10562;-33.856;151.182;2022-07-29T05:26:40;5.68;;;1.02;;
20802;SDS011;10562;-33.856;151.182;2022-07-29T05:29:12;2.85;;;0.70;;
20802;SDS011;10562;-33.856;151.182;2022-07-29T05:31:43;1.77;;;0.82;;
20802;SDS011;10562;-33.856;151.182;2022-07-29T05:34:16;4.15;;;0.70;;
20802;SDS011;10562;-33.856;151.182;2022-07-29T05:36:46;2.15;;;0.70;;
20802;SDS011;10562;-33.856;151.182;2022-07-29T05:39:17;0.95;;;0.68;;
20802;SDS011;10562;-33.856;151.182;2022-07-29T05:41:48;1.58;;;0.75;;
20802;SDS011;10562;-33.856;151.182;2022-07-29T05:44:19;6.05;;;0.90;;
20802;SDS011;10562;-33.856;151.182;2022-07-29T05:46:50;2.67;;;0.90;;
20802;SDS011;10562;-33.856;151.182;2022-07-29T05:49:22;3.55;;;0.98;;
20802;SDS011;10562;-33.856;151.182;2022-07-29T05:51:53;5.38;;;0.90;;
20802;SDS011;10562;-33.856;151.182;2022-07-29T05:54:24;2.42;;;0.85;;
20802;SDS011;10562;-33.856;151.182;2022-07-29T05:56:58;4.28;;;0.82;;
20802;SDS011;10562;-33.856;151.182;2022-07-29T05:59:35;3.58;;;1.05;;
20802;SDS011;10562;-33.856;151.182;2022-07-29T06:02:06;4.53;;;1.00;;
20802;SDS011;10562;-33.856;151.182;2022-07-29T06:04:39;2.50;;;1.00;;
20802;SDS011;10562;-33.856;151.182;2022-07-29T06:07:10;4.22;;;1.10;;
20802;SDS011;10562;-33.856;151.182;2022-07-29T06:09:40;3.50;;;0.80;;
20802;SDS011;10562;-33.856;151.182;2022-07-29T06:12:11;5.55;;;0.90;;
20802;SDS011;10562;-33.856;151.182;2022-07-29T06:14:42;2.05;;;0.90;;
20802;SDS011;10562;-33.856;151.182;2022-07-29T06:17:13;5.45;;;1.10;;
20802;SDS011;10562;-33.856;151.182;2022-07-29T06:19:47;2.25;;;0.85;;
20802;SDS011;10562;-33.856;151.182;2022-07-29T06:22:17;4.85;;;0.98;;
20802;SDS011;10562;-33.856;151.182;2022-07-29T06:24:48;3.72;;;0.93;;
20802;SDS011;10562;-33.856;151.182;2022-07-29T06:27:19;5.28;;;1.00;;
20802;SDS011;10562;-33.856;151.182;2022-07-29T06:29:50;4.43;;;1.00;;
20802;SDS011;10562;-33.856;151.182;2022-07-29T06:32:21;4.13;;;1.15;;
20802;SDS011;10562;-33.856;151.182;2022-07-29T06:34:54;6.90;;;0.90;;
20802;SDS011;10562;-33.856;151.182;2022-07-29T06:37:24;4.45;;;1.00;;
20802;SDS011;10562;-33.856;151.182;2022-07-29T06:39:55;6.50;;;1.30;;
20802;SDS011;10562;-33.856;151.182;2022-07-29T06:42:41;2.67;;;1.20;;
20802;SDS011;10562;-33.856;151.182;2022-07-29T06:45:12;4.78;;;1.10;;
20802;SDS011;10562;-33.856;151.182;2022-07-29T06:47:44;3.25;;;1.00;;
20802;SDS011;10562;-33.856;151.182;2022-07-29T06:50:17;7.22;;;1.15;;
20802;SDS011;10562;-33.856;151.182;2022-07-29T06:52:47;9.40;;;1.30;;
20802;SDS011;10562;-33.856;151.182;2022-07-29T06:55:18;4.43;;;1.20;;
20802;SDS011;10562;-33.856;151.182;2022-07-29T06:57:49;3.65;;;1.20;;
20802;SDS011;10562;-33.856;151.182;2022-07-29T07:00:20;4.18;;;1.15;;
20802;SDS011;10562;-33.856;151.182;2022-07-29T07:02:51;4.82;;;1.10;;
20802;SDS011;10562;-33.856;151.182;2022-07-29T07:05:24;5.63;;;1.10;;
20802;SDS011;10562;-33.856;151.182;2022-07-29T07:07:55;3.85;;;1.20;;
20802;SDS011;10562;-33.856;151.182;2022-07-29T07:10:26;4.10;;;1.40;;
20802;SDS011;10562;-33.856;151.182;2022-07-29T07:12:57;2.05;;;0.75;;
20802;SDS011;10562;-33.856;151.182;2022-07-29T07:15:28;3.63;;;0.93;;
20802;SDS011;10562;-33.856;151.182;2022-07-29T07:17:59;2.70;;;0.98;;
20802;SDS011;10562;-33.856;151.182;2022-07-29T07:20:32;3.70;;;1.23;;
20802;SDS011;10562;-33.856;151.182;2022-07-29T07:23:03;3.63;;;1.00;;
20802;SDS011;10562;-33.856;151.182;2022-07-29T07:25:34;4.57;;;1.10;;
20802;SDS011;10562;-33.856;151.182;2022-07-29T07:28:06;8.95;;;1.10;;
20802;SDS011;10562;-33.856;151.182;2022-07-29T07:30:36;4.38;;;1.00;;
20802;SDS011;10562;-33.856;151.182;2022-07-29T07:33:08;3.95;;;1.10;;
20802;SDS011;10562;-33.856;151.182;2022-07-29T07:35:41;2.03;;;1.00;;
20802;SDS011;10562;-33.856;151.182;2022-07-29T07:38:12;4.45;;;0.93;;
20802;SDS011;10562;-33.856;151.182;2022-07-29T07:40:43;4.15;;;1.10;;
20802;SDS011;10562;-33.856;151.182;2022-07-29T07:43:14;2.90;;;1.02;;
20802;SDS011;10562;-33.856;151.182;2022-07-29T07:45:45;4.85;;;1.30;;
20802;SDS011;10562;-33.856;151.182;2022-07-29T07:48:16;3.47;;;1.48;;
20802;SDS011;10562;-33.856;151.182;2022-07-29T07:50:48;3.28;;;1.10;;
20802;SDS011;10562;-33.856;151.182;2022-07-29T07:53:19;4.10;;;1.30;;
20802;SDS011;10562;-33.856;151.182;2022-07-29T07:55:50;4.07;;;1.23;;
20802;SDS011;10562;-33.856;151.182;2022-07-29T07:58:21;4.50;;;1.10;;
20802;SDS011;10562;-33.856;151.182;2022-07-29T08:00:52;4.47;;;1.20;;
20802;SDS011;10562;-33.856;151.182;2022-07-29T08:03:22;2.92;;;1.48;;
20802;SDS011;10562;-33.856;151.182;2022-07-29T08:05:55;3.95;;;1.65;;
20802;SDS011;10562;-33.856;151.182;2022-07-29T08:08:26;4.68;;;1.50;;
20802;SDS011;10562;-33.856;151.182;2022-07-29T08:10:57;2.90;;;1.40;;
20802;SDS011;10562;-33.856;151.182;2022-07-29T08:13:28;6.70;;;1.45;;
20802;SDS011;10562;-33.856;151.182;2022-07-29T08:15:59;6.43;;;1.58;;
20802;SDS011;10562;-33.856;151.182;2022-07-29T08:18:37;4.03;;;1.25;;
20802;SDS011;10562;-33.856;151.182;2022-07-29T08:21:11;3.78;;;1.20;;
20802;SDS011;10562;-33.856;151.182;2022-07-29T08:23:43;5.95;;;1.35;;
20802;SDS011;10562;-33.856;151.182;2022-07-29T08:26:15;4.93;;;1.40;;
20802;SDS011;10562;-33.856;151.182;2022-07-29T08:28:46;6.50;;;1.35;;
20802;SDS011;10562;-33.856;151.182;2022-07-29T08:31:17;3.38;;;1.30;;
20802;SDS011;10562;-33.856;151.182;2022-07-29T08:33:48;6.22;;;1.50;;
20802;SDS011;10562;-33.856;151.182;2022-07-29T08:36:21;6.45;;;1.45;;
20802;SDS011;10562;-33.856;151.182;2022-07-29T08:38:52;5.18;;;1.50;;
20802;SDS011;10562;-33.856;151.182;2022-07-29T08:41:22;6.00;;;1.40;;
20802;SDS011;10562;-33.856;151.182;2022-07-29T08:43:53;5.82;;;1.60;;
20802;SDS011;10562;-33.856;151.182;2022-07-29T08:46:24;7.18;;;1.70;;
20802;SDS011;10562;-33.856;151.182;2022-07-29T08:48:55;6.28;;;1.70;;
20802;SDS011;10562;-33.856;151.182;2022-07-29T08:51:28;7.80;;;2.10;;
20802;SDS011;10562;-33.856;151.182;2022-07-29T08:54:03;8.70;;;2.08;;
20802;SDS011;10562;-33.856;151.182;2022-07-29T08:56:34;8.95;;;2.13;;
20802;SDS011;10562;-33.856;151.182;2022-07-29T08:59:07;11.18;;;2.85;;
20802;SDS011;10562;-33.856;151.182;2022-07-29T09:01:39;11.50;;;3.00;;
20802;SDS011;10562;-33.856;151.182;2022-07-29T09:04:13;11.68;;;3.10;;
20802;SDS011;10562;-33.856;151.182;2022-07-29T09:06:59;10.90;;;2.60;;
20802;SDS011;10562;-33.856;151.182;2022-07-29T09:09:33;14.68;;;2.90;;
20802;SDS011;10562;-33.856;151.182;2022-07-29T09:12:06;6.63;;;2.28;;
20802;SDS011;10562;-33.856;151.182;2022-07-29T09:14:37;5.78;;;2.15;;
20802;SDS011;10562;-33.856;151.182;2022-07-29T09:17:08;14.43;;;4.00;;
20802;SDS011;10562;-33.856;151.182;2022-07-29T09:19:39;9.02;;;2.50;;
20802;SDS011;10562;-33.856;151.182;2022-07-29T09:22:13;9.27;;;2.85;;
20802;SDS011;10562;-33.856;151.182;2022-07-29T09:24:59;12.90;;;3.50;;
20802;SDS011;10562;-33.856;151.182;2022-07-29T09:27:30;16.17;;;3.38;;
20802;SDS011;10562;-33.856;151.182;2022-07-29T09:30:02;17.00;;;3.50;;
20802;SDS011;10562;-33.856;151.182;2022-07-29T09:35:25;10.10;;;2.78;;
20802;SDS011;10562;-33.856;151.182;2022-07-29T09:37:58;10.02;;;2.92;;
20802;SDS011;10562;-33.856;151.182;2022-07-29T09:40:40;10.00;;;2.63;;
20802;SDS011;10562;-33.856;151.182;2022-07-29T09:43:24;11.55;;;2.60;;
20802;SDS011;10562;-33.856;151.182;2022-07-29T09:45:55;14.15;;;3.38;;
20802;SDS011;10562;-33.856;151.182;2022-07-29T09:48:38;10.90;;;3.00;;
20802;SDS011;10562;-33.856;151.182;2022-07-29T09:51:17;8.45;;;2.65;;
20802;SDS011;10562;-33.856;151.182;2022-07-29T09:53:49;13.38;;;3.30;;
20802;SDS011;10562;-33.856;151.182;2022-07-29T09:56:20;13.88;;;3.65;;
20802;SDS011;10562;-33.856;151.182;2022-07-29T09:59:07;11.73;;;3.40;;
20802;SDS011;10562;-33.856;151.182;2022-07-29T10:01:39;9.50;;;2.75;;
20802;SDS011;10562;-33.856;151.182;2022-07-29T10:04:10;10.23;;;2.53;;
20802;SDS011;10562;-33.856;151.182;2022-07-29T10:06:55;8.98;;;2.65;;
20802;SDS011;10562;-33.856;151.182;2022-07-29T10:09:28;9.35;;;3.00;;
20802;SDS011;10562;-33.856;151.182;2022-07-29T10:12:03;8.15;;;3.40;;
20802;SDS011;10562;-33.856;151.182;2022-07-29T10:14:40;8.73;;;3.35;;
20802;SDS011;10562;-33.856;151.182;2022-07-29T10:17:11;10.60;;;3.65;;
20802;SDS011;10562;-33.856;151.182;2022-07-29T10:19:42;9.18;;;3.45;;
20802;SDS011;10562;-33.856;151.182;2022-07-29T10:22:13;12.98;;;4.40;;
20802;SDS011;10562;-33.856;151.182;2022-07-29T10:24:49;11.82;;;4.03;;
20802;SDS011;10562;-33.856;151.182;2022-07-29T10:27:20;12.55;;;4.22;;
20802;SDS011;10562;-33.856;151.182;2022-07-29T10:29:50;10.85;;;3.80;;
20802;SDS011;10562;-33.856;151.182;2022-07-29T10:32:25;15.25;;;4.30;;
20802;SDS011;10562;-33.856;151.182;2022-07-29T10:35:23;11.02;;;3.95;;
20802;SDS011;10562;-33.856;151.182;2022-07-29T10:38:24;9.25;;;3.28;;
20802;SDS011;10562;-33.856;151.182;2022-07-29T10:41:11;9.70;;;3.45;;
20802;SDS011;10562;-33.856;151.182;2022-07-29T10:43:59;9.70;;;3.83;;
20802;SDS011;10562;-33.856;151.182;2022-07-29T10:46:34;10.23;;;3.47;;
20802;SDS011;10562;-33.856;151.182;2022-07-29T10:49:06;9.32;;;3.15;;
20802;SDS011;10562;-33.856;151.182;2022-07-29T10:51:57;8.23;;;3.22;;
20802;SDS011;10562;-33.856;151.182;2022-07-29T10:54:39;11.50;;;3.50;;
20802;SDS011;10562;-33.856;151.182;2022-07-29T10:57:18;11.57;;;3.42;;
20802;SDS011;10562;-33.856;151.182;2022-07-29T10:59:51;9.52;;;3.53;;
20802;SDS011;10562;-33.856;151.182;2022-07-29T11:02:58;9.88;;;3.42;;
20802;SDS011;10562;-33.856;151.182;2022-07-29T11:05:29;11.32;;;3.47;;
20802;SDS011;10562;-33.856;151.182;2022-07-29T11:08:21;14.25;;;3.42;;
20802;SDS011;10562;-33.856;151.182;2022-07-29T11:11:29;12.60;;;3.40;;
20802;SDS011;10562;-33.856;151.182;2022-07-29T11:14:12;11.20;;;3.22;;
20802;SDS011;10562;-33.856;151.182;2022-07-29T11:16:58;10.50;;;2.97;;
20802;SDS011;10562;-33.856;151.182;2022-07-29T11:19:30;11.13;;;3.28;;
20802;SDS011;10562;-33.856;151.182;2022-07-29T11:22:02;8.43;;;3.25;;
20802;SDS011;10562;-33.856;151.182;2022-07-29T11:24:36;10.75;;;2.80;;
20802;SDS011;10562;-33.856;151.182;2022-07-29T11:27:11;13.45;;;3.10;;
20802;SDS011;10562;-33.856;151.182;2022-07-29T11:29:52;6.82;;;2.85;;
20802;SDS011;10562;-33.856;151.182;2022-07-29T11:32:25;10.48;;;3.25;;
20802;SDS011;10562;-33.856;151.182;2022-07-29T11:35:13;7.68;;;2.85;;
20802;SDS011;10562;-33.856;151.182;2022-07-29T11:37:46;6.93;;;2.95;;
20802;SDS011;10562;-33.856;151.182;2022-07-29T11:40:38;10.80;;;3.00;;
20802;SDS011;10562;-33.856;151.182;2022-07-29T11:43:09;8.75;;;3.40;;
20802;SDS011;10562;-33.856;151.182;2022-07-29T11:46:01;9.25;;;3.47;;
20802;SDS011;10562;-33.856;151.182;2022-07-29T11:48:32;8.70;;;3.35;;
20802;SDS011;10562;-33.856;151.182;2022-07-29T11:51:04;8.90;;;3.17;;
20802;SDS011;10562;-33.856;151.182;2022-07-29T11:53:39;10.18;;;3.00;;
20802;SDS011;10562;-33.856;151.182;2022-07-29T11:56:15;9.25;;;3.05;;
20802;SDS011;10562;-33.856;151.182;2022-07-29T11:58:50;10.30;;;2.97;;
20802;SDS011;10562;-33.856;151.182;2022-07-29T12:01:33;7.30;;;2.92;;
20802;SDS011;10562;-33.856;151.182;2022-07-29T12:04:04;7.75;;;2.65;;
20802;SDS011;10562;-33.856;151.182;2022-07-29T12:06:35;9.18;;;2.70;;
20802;SDS011;10562;-33.856;151.182;2022-07-29T12:09:07;7.07;;;2.53;;
20802;SDS011;10562;-33.856;151.182;2022-07-29T12:11:38;9.38;;;2.70;;
20802;SDS011;10562;-33.856;151.182;2022-07-29T12:14:09;7.55;;;2.90;;
20802;SDS011;10562;-33.856;151.182;2022-07-29T12:16:55;8.13;;;2.80;;
20802;SDS011;10562;-33.856;151.182;2022-07-29T12:19:26;6.78;;;2.45;;
20802;SDS011;10562;-33.856;151.182;2022-07-29T12:21:57;5.25;;;2.58;;
20802;SDS011;10562;-33.856;151.182;2022-07-29T12:24:33;8.52;;;2.67;;
20802;SDS011;10562;-33.856;151.182;2022-07-29T12:27:16;5.55;;;2.47;;
20802;SDS011;10562;-33.856;151.182;2022-07-29T12:29:55;10.95;;;2.60;;
20802;SDS011;10562;-33.856;151.182;2022-07-29T12:32:33;9.73;;;2.50;;
20802;SDS011;10562;-33.856;151.182;2022-07-29T12:35:04;8.48;;;2.40;;
20802;SDS011;10562;-33.856;151.182;2022-07-29T12:37:36;10.35;;;2.83;;
20802;SDS011;10562;-33.856;151.182;2022-07-29T12:40:09;8.82;;;2.60;;
20802;SDS011;10562;-33.856;151.182;2022-07-29T12:42:41;11.70;;;2.75;;
20802;SDS011;10562;-33.856;151.182;2022-07-29T12:45:36;10.75;;;2.78;;
20802;SDS011;10562;-33.856;151.182;2022-07-29T12:48:09;6.38;;;2.50;;
20802;SDS011;10562;-33.856;151.182;2022-07-29T12:50:53;11.23;;;2.72;;
20802;SDS011;10562;-33.856;151.182;2022-07-29T12:53:25;9.07;;;2.53;;
20802;SDS011;10562;-33.856;151.182;2022-07-29T12:55:56;7.28;;;2.90;;
20802;SDS011;10562;-33.856;151.182;2022-07-29T12:58:28;6.97;;;2.38;;
20802;SDS011;10562;-33.856;151.182;2022-07-29T13:01:04;5.82;;;2.55;;
20802;SDS011;10562;-33.856;151.182;2022-07-29T13:03:50;14.27;;;2.55;;
20802;SDS011;10562;-33.856;151.182;2022-07-29T13:06:29;7.97;;;2.95;;
20802;SDS011;10562;-33.856;151.182;2022-07-29T13:09:02;7.97;;;2.65;;
20802;SDS011;10562;-33.856;151.182;2022-07-29T13:11:36;9.68;;;2.47;;
20802;SDS011;10562;-33.856;151.182;2022-07-29T13:14:08;7.32;;;2.50;;
20802;SDS011;10562;-33.856;151.182;2022-07-29T13:19:37;8.25;;;2.28;;
20802;SDS011;10562;-33.856;151.182;2022-07-29T13:22:09;5.85;;;2.10;;
20802;SDS011;10562;-33.856;151.182;2022-07-29T13:24:49;6.07;;;2.15;;
20802;SDS011;10562;-33.856;151.182;2022-07-29T13:27:21;9.73;;;2.20;;
20802;SDS011;10562;-33.856;151.182;2022-07-29T13:29:53;5.10;;;2.17;;
20802;SDS011;10562;-33.856;151.182;2022-07-29T13:32:26;7.55;;;2.75;;
20802;SDS011;10562;-33.856;151.182;2022-07-29T13:35:00;8.60;;;2.28;;
20802;SDS011;10562;-33.856;151.182;2022-07-29T13:37:32;8.77;;;2.47;;
20802;SDS011;10562;-33.856;151.182;2022-07-29T13:40:04;8.10;;;2.25;;
20802;SDS011;10562;-33.856;151.182;2022-07-29T13:42:36;8.73;;;2.60;;
20802;SDS011;10562;-33.856;151.182;2022-07-29T13:45:08;9.65;;;2.53;;
20802;SDS011;10562;-33.856;151.182;2022-07-29T13:47:39;6.20;;;2.22;;
20802;SDS011;10562;-33.856;151.182;2022-07-29T13:50:11;5.90;;;2.10;;
20802;SDS011;10562;-33.856;151.182;2022-07-29T13:52:42;7.13;;;2.28;;
20802;SDS011;10562;-33.856;151.182;2022-07-29T13:55:14;11.95;;;2.30;;
20802;SDS011;10562;-33.856;151.182;2022-07-29T13:57:45;9.23;;;2.90;;
20802;SDS011;10562;-33.856;151.182;2022-07-29T14:00:16;8.32;;;2.28;;
20802;SDS011;10562;-33.856;151.182;2022-07-29T14:02:47;10.32;;;2.83;;
20802;SDS011;10562;-33.856;151.182;2022-07-29T14:05:20;6.55;;;2.60;;
20802;SDS011;10562;-33.856;151.182;2022-07-29T14:07:51;12.95;;;3.05;;
20802;SDS011;10562;-33.856;151.182;2022-07-29T14:10:21;10.70;;;2.67;;
20802;SDS011;10562;-33.856;151.182;2022-07-29T14:12:52;8.45;;;3.10;;
20802;SDS011;10562;-33.856;151.182;2022-07-29T14:15:23;8.77;;;3.08;;
20802;SDS011;10562;-33.856;151.182;2022-07-29T14:17:54;8.85;;;2.58;;
20802;SDS011;10562;-33.856;151.182;2022-07-29T14:20:26;11.02;;;3.15;;
20802;SDS011;10562;-33.856;151.182;2022-07-29T14:22:57;9.02;;;2.72;;
20802;SDS011;10562;-33.856;151.182;2022-07-29T14:25:28;10.38;;;2.80;;
20802;SDS011;10562;-33.856;151.182;2022-07-29T14:27:59;8.30;;;2.35;;
20802;SDS011;10562;-33.856;151.182;2022-07-29T14:30:30;10.57;;;2.90;;
20802;SDS011;10562;-33.856;151.182;2022-07-29T14:33:01;10.82;;;2.80;;
20802;SDS011;10562;-33.856;151.182;2022-07-29T14:35:34;10.27;;;2.40;;
20802;SDS011;10562;-33.856;151.182;2022-07-29T14:38:05;9.13;;;2.60;;
20802;SDS011;10562;-33.856;151.182;2022-07-29T14:40:36;7.32;;;2.50;;
20802;SDS011;10562;-33.856;151.182;2022-07-29T14:43:06;6.57;;;2.60;;
20802;SDS011;10562;-33.856;151.182;2022-07-29T14:45:37;5.63;;;2.30;;
20802;SDS011;10562;-33.856;151.182;2022-07-29T14:48:08;7.38;;;2.75;;
20802;SDS011;10562;-33.856;151.182;2022-07-29T14:50:41;9.05;;;2.78;;